createdAt,value
2017-12-26T00:01:19.851Z,62.43
2017-12-26T00:03:47.455Z,56.57
2017-12-26T00:06:14.983Z,52.57
2017-12-26T00:08:42.562Z,60.37
2017-12-26T00:11:10.208Z,56.50
2017-12-26T00:13:37.804Z,59.00
2017-12-26T00:16:05.370Z,60.73
2017-12-26T00:18:32.915Z,61.00
2017-12-26T00:21:00.482Z,61.20
2017-12-26T00:23:28.044Z,61.90
2017-12-26T00:25:56.350Z,59.17
2017-12-26T00:28:23.920Z,60.37
2017-12-26T00:30:51.555Z,59.20
2017-12-26T00:33:19.125Z,56.30
2017-12-26T00:35:46.686Z,68.77
2017-12-26T00:38:14.257Z,60.20
2017-12-26T00:40:41.800Z,66.00
2017-12-26T00:43:09.367Z,57.43
2017-12-26T00:45:36.931Z,65.47
2017-12-26T00:48:04.521Z,65.97
2017-12-26T00:50:32.137Z,70.27
2017-12-26T00:52:59.711Z,64.87
2017-12-26T00:55:27.401Z,65.97
2017-12-26T00:57:55.149Z,63.37
2017-12-26T01:00:22.680Z,70.47
2017-12-26T01:02:50.259Z,69.03
2017-12-26T01:05:18.551Z,75.80
2017-12-26T01:07:46.141Z,76.60
2017-12-26T01:10:13.730Z,69.47
2017-12-26T01:12:41.332Z,65.90
2017-12-26T01:15:09.526Z,67.17
2017-12-26T01:17:37.112Z,66.67
2017-12-26T01:20:05.340Z,68.97
2017-12-26T01:22:32.934Z,76.77
2017-12-26T01:25:01.399Z,70.60
2017-12-26T01:27:28.919Z,73.17
2017-12-26T01:29:56.536Z,69.77
2017-12-26T01:32:24.118Z,67.93
2017-12-26T01:34:52.505Z,69.67
2017-12-26T01:37:20.143Z,85.40
2017-12-26T01:39:47.685Z,70.20
2017-12-26T01:42:15.235Z,76.73
2017-12-26T01:44:42.822Z,77.43
2017-12-26T01:47:10.359Z,84.53
2017-12-26T01:49:37.912Z,82.10
2017-12-26T01:52:05.483Z,79.13
2017-12-26T01:54:33.001Z,91.60
2017-12-26T01:57:00.535Z,87.53
2017-12-26T01:59:28.866Z,78.90
2017-12-26T02:01:56.448Z,77.87
2017-12-26T02:04:24.029Z,85.67
2017-12-26T02:06:51.624Z,80.17
2017-12-26T02:09:19.959Z,89.97
2017-12-26T02:11:48.284Z,88.20
2017-12-26T02:14:16.647Z,81.23
2017-12-26T02:16:44.313Z,81.63
2017-12-26T02:19:11.891Z,87.67
2017-12-26T02:21:39.473Z,89.40
2017-12-26T02:24:06.992Z,86.57
2017-12-26T02:26:34.564Z,96.23
2017-12-26T02:29:02.156Z,86.10
2017-12-26T02:31:29.684Z,89.50
2017-12-26T02:33:57.318Z,96.80
2017-12-26T02:36:25.676Z,92.63
2017-12-26T02:38:53.255Z,91.87
2017-12-26T02:41:21.565Z,87.20
2017-12-26T02:43:49.148Z,85.57
2017-12-26T02:46:16.762Z,95.30
2017-12-26T02:48:44.354Z,87.33
2017-12-26T02:51:11.872Z,86.70
2017-12-26T02:53:40.183Z,86.57
2017-12-26T02:56:07.754Z,93.83
2017-12-26T02:58:35.275Z,94.20
2017-12-26T03:01:02.929Z,80.03
2017-12-26T03:03:31.236Z,81.67
2017-12-26T03:05:58.818Z,91.20
2017-12-26T03:08:26.405Z,89.27
2017-12-26T03:10:53.972Z,83.33
2017-12-26T03:13:22.310Z,87.53
2017-12-26T03:15:49.902Z,86.50
2017-12-26T03:18:17.513Z,92.10
2017-12-26T03:20:45.069Z,98.57
2017-12-26T03:23:12.625Z,106.80
2017-12-26T03:25:40.164Z,95.47
2017-12-26T03:28:07.720Z,93.70
2017-12-26T03:30:36.048Z,91.33
2017-12-26T03:33:03.630Z,86.30
2017-12-26T03:35:31.218Z,91.57
2017-12-26T03:37:58.840Z,95.63
2017-12-26T03:40:26.394Z,97.73
2017-12-26T03:42:53.916Z,91.20
2017-12-26T03:45:22.281Z,97.00
2017-12-26T03:47:50.610Z,94.67
2017-12-26T03:50:18.166Z,102.47
2017-12-26T03:52:45.746Z,100.20
2017-12-26T03:55:13.323Z,91.70
2017-12-26T03:57:40.889Z,99.70
2017-12-26T04:00:08.790Z,93.30
2017-12-26T04:02:36.427Z,95.10
2017-12-26T04:05:05.059Z,103.47
2017-12-26T04:07:32.611Z,97.13
2017-12-26T04:10:00.179Z,102.80
2017-12-26T04:12:27.735Z,111.30
2017-12-26T04:14:55.377Z,97.03
2017-12-26T04:17:22.969Z,93.97
2017-12-26T04:19:50.567Z,95.63
2017-12-26T04:22:18.949Z,100.93
2017-12-26T04:24:46.524Z,91.63
2017-12-26T04:27:14.071Z,106.40
2017-12-26T04:29:42.395Z,94.70
2017-12-26T04:32:09.914Z,102.50
2017-12-26T04:34:37.459Z,105.50
2017-12-26T04:37:05.078Z,100.17
2017-12-26T04:39:32.601Z,103.57
2017-12-26T04:42:00.955Z,100.23
2017-12-26T04:44:28.516Z,104.30
2017-12-26T04:46:56.072Z,102.03
2017-12-26T04:49:23.636Z,105.20
2017-12-26T04:51:51.202Z,101.93
2017-12-26T04:54:18.823Z,96.13
2017-12-26T04:56:46.347Z,101.93
2017-12-26T04:59:13.992Z,111.93
2017-12-26T05:01:41.564Z,96.90
2017-12-26T05:04:09.164Z,97.20
2017-12-26T05:06:36.684Z,97.63
2017-12-26T05:09:04.230Z,102.60
2017-12-26T05:11:32.584Z,105.00
2017-12-26T05:14:00.894Z,107.00
2017-12-26T05:16:28.469Z,100.17
2017-12-26T05:18:56.054Z,107.97
2017-12-26T05:21:23.921Z,116.73
2017-12-26T05:23:51.507Z,104.97
2017-12-26T05:26:19.063Z,108.43
2017-12-26T05:28:46.704Z,96.90
2017-12-26T05:31:14.213Z,102.17
2017-12-26T05:33:41.767Z,101.23
2017-12-26T05:36:10.131Z,107.43
2017-12-26T05:38:37.727Z,108.97
2017-12-26T05:41:05.250Z,112.10
2017-12-26T05:43:32.833Z,100.60
2017-12-26T05:46:01.130Z,105.63
2017-12-26T05:48:28.670Z,98.63
2017-12-26T05:50:57.023Z,103.43
2017-12-26T05:53:24.579Z,108.43
2017-12-26T05:55:52.231Z,113.50
2017-12-26T05:58:19.785Z,116.37
2017-12-26T06:00:47.407Z,96.70
2017-12-26T06:03:14.974Z,106.30
2017-12-26T06:05:42.539Z,97.93
2017-12-26T06:08:10.064Z,99.23
2017-12-26T06:10:38.477Z,104.77
2017-12-26T06:13:06.026Z,95.10
2017-12-26T06:15:33.561Z,93.60
2017-12-26T06:18:01.158Z,102.50
2017-12-26T06:20:28.716Z,104.23
2017-12-26T06:22:56.277Z,100.77
2017-12-26T06:25:23.870Z,103.57
2017-12-26T06:27:51.452Z,90.97
2017-12-26T06:30:18.979Z,105.30
2017-12-26T06:32:46.531Z,104.20
2017-12-26T06:35:14.092Z,94.47
2017-12-26T06:37:41.639Z,94.13
2017-12-26T06:40:09.153Z,103.40
2017-12-26T06:42:38.251Z,92.30
2017-12-26T06:45:06.638Z,83.70
2017-12-26T06:47:34.224Z,82.70
2017-12-26T06:50:01.744Z,97.77
2017-12-26T06:52:29.340Z,87.47
2017-12-26T06:54:56.917Z,99.37
2017-12-26T06:57:24.451Z,95.20
2017-12-26T06:59:52.087Z,96.93
2017-12-26T07:02:20.411Z,86.90
2017-12-26T07:04:47.954Z,96.40
2017-12-26T07:07:15.533Z,90.23
2017-12-26T07:09:43.113Z,97.00
2017-12-26T07:12:10.628Z,96.93
2017-12-26T07:14:38.157Z,96.63
2017-12-26T07:17:05.752Z,93.23
2017-12-26T07:19:38.886Z,89.10
2017-12-26T07:22:12.133Z,94.27
2017-12-26T07:24:39.742Z,98.20
2017-12-26T07:27:08.168Z,96.87
2017-12-26T07:29:35.708Z,95.83
2017-12-26T07:32:04.090Z,95.40
2017-12-26T07:34:31.661Z,104.43
2017-12-26T07:36:59.957Z,98.00
2017-12-26T07:39:27.547Z,97.20
2017-12-26T07:41:55.129Z,86.13
2017-12-26T07:44:22.855Z,104.83
2017-12-26T07:46:50.446Z,79.20
2017-12-26T07:49:18.040Z,109.03
2017-12-26T07:51:46.366Z,88.23
2017-12-26T07:54:13.964Z,91.63
2017-12-26T07:56:41.555Z,93.07
2017-12-26T07:59:09.097Z,93.47
2017-12-26T08:01:37.415Z,90.57
2017-12-26T08:04:04.978Z,85.10
2017-12-26T08:06:32.509Z,90.03
2017-12-26T08:09:00.082Z,81.77
2017-12-26T08:11:27.623Z,85.13
2017-12-26T08:13:55.194Z,90.43
2017-12-26T08:16:22.835Z,95.53
2017-12-26T08:18:51.190Z,79.57
2017-12-26T08:21:18.710Z,88.47
2017-12-26T08:23:46.341Z,92.67
2017-12-26T08:26:14.652Z,113.47
2017-12-26T08:28:42.201Z,104.97
2017-12-26T08:31:09.794Z,89.77
2017-12-26T08:33:37.396Z,113.63
2017-12-26T08:36:05.709Z,94.70
2017-12-26T08:38:33.281Z,91.67
2017-12-26T08:41:00.817Z,87.77
2017-12-26T08:43:28.403Z,91.20
2017-12-26T08:45:55.928Z,85.70
2017-12-26T08:48:23.527Z,98.77
2017-12-26T08:50:51.082Z,100.13
2017-12-26T08:53:18.720Z,92.80
2017-12-26T08:55:46.280Z,88.60
2017-12-26T08:58:13.914Z,89.70
2017-12-26T09:00:42.206Z,90.20
2017-12-26T09:03:09.761Z,81.83
2017-12-26T09:05:37.322Z,98.10
2017-12-26T09:08:04.865Z,88.30
2017-12-26T09:10:32.455Z,75.83
2017-12-26T09:13:00.193Z,82.00
2017-12-26T09:15:29.356Z,86.07
2017-12-26T09:17:57.804Z,86.90
2017-12-26T09:20:25.354Z,86.83
2017-12-26T09:22:52.895Z,85.40
2017-12-26T09:25:22.393Z,81.93
2017-12-26T09:27:49.959Z,84.27
2017-12-26T09:30:18.294Z,91.27
2017-12-26T09:32:45.868Z,83.73
2017-12-26T09:35:14.153Z,83.13
2017-12-26T09:37:41.697Z,95.17
2017-12-26T09:40:09.695Z,81.47
2017-12-26T09:42:38.707Z,92.47
2017-12-26T09:45:07.916Z,86.27
2017-12-26T09:47:35.450Z,85.67
2017-12-26T09:50:03.078Z,87.53
2017-12-26T09:52:30.864Z,87.63
2017-12-26T09:54:58.527Z,82.40
2017-12-26T09:57:26.847Z,86.57
2017-12-26T09:59:54.440Z,81.37
2017-12-26T10:02:22.065Z,81.40
2017-12-26T10:04:49.632Z,76.27
2017-12-26T10:07:17.211Z,93.20
2017-12-26T10:09:44.780Z,85.87
2017-12-26T10:12:12.330Z,75.33
2017-12-26T10:14:39.915Z,90.47
2017-12-26T10:17:07.446Z,93.67
2017-12-26T10:19:35.095Z,82.17
2017-12-26T10:22:02.636Z,85.50
2017-12-26T10:24:30.221Z,88.60
2017-12-26T10:26:57.792Z,89.53
2017-12-26T10:29:25.395Z,81.03
2017-12-26T10:31:53.776Z,84.53
2017-12-26T10:34:21.379Z,83.60
2017-12-26T10:36:49.844Z,91.10
2017-12-26T10:39:17.453Z,84.57
2017-12-26T10:41:44.997Z,100.50
2017-12-26T10:44:13.673Z,84.50
2017-12-26T10:46:41.285Z,82.50
2017-12-26T10:49:08.858Z,85.53
2017-12-26T10:51:36.434Z,88.77
2017-12-26T10:54:03.996Z,82.30
2017-12-26T10:56:31.585Z,82.07
2017-12-26T10:58:59.153Z,81.57
2017-12-26T11:01:26.735Z,82.50
2017-12-26T11:03:55.818Z,88.10
2017-12-26T11:06:23.419Z,84.43
2017-12-26T11:08:50.951Z,92.90
2017-12-26T11:11:18.591Z,70.40
2017-12-26T11:13:46.117Z,83.57
2017-12-26T11:16:13.673Z,75.43
2017-12-26T11:18:41.251Z,88.53
2017-12-26T11:21:08.843Z,90.23
2017-12-26T11:23:36.417Z,82.33
2017-12-26T11:26:10.539Z,84.97
2017-12-26T11:28:42.950Z,86.20
2017-12-26T11:31:10.516Z,93.87
2017-12-26T11:33:39.132Z,76.90
2017-12-26T11:36:06.688Z,82.70
2017-12-26T11:38:34.239Z,89.00
2017-12-26T11:41:01.822Z,87.20
2017-12-26T11:43:29.455Z,94.13
2017-12-26T11:45:57.007Z,84.27
2017-12-26T11:48:25.347Z,94.30
2017-12-26T11:50:52.931Z,85.27
2017-12-26T11:53:20.505Z,87.80
2017-12-26T11:55:48.133Z,90.13
2017-12-26T11:58:15.920Z,91.73
2017-12-26T12:00:43.460Z,87.43
2017-12-26T12:03:11.052Z,89.80
2017-12-26T12:05:38.594Z,88.20
2017-12-26T12:08:06.652Z,84.40
2017-12-26T12:10:34.433Z,89.03
2017-12-26T12:13:01.990Z,80.80
2017-12-26T12:15:29.565Z,89.93
2017-12-26T12:17:57.113Z,83.77
2017-12-26T12:20:24.695Z,90.93
2017-12-26T12:22:52.283Z,74.83
2017-12-26T12:25:19.895Z,83.13
2017-12-26T12:27:47.447Z,87.30
2017-12-26T12:30:15.072Z,79.33
2017-12-26T12:32:43.381Z,68.50
2017-12-26T12:35:10.965Z,91.47
2017-12-26T12:37:38.568Z,81.50
2017-12-26T12:40:07.708Z,84.70
2017-12-26T12:42:35.283Z,89.83
2017-12-26T12:45:02.970Z,84.30
2017-12-26T12:47:30.520Z,90.33
2017-12-26T12:49:58.182Z,79.27
2017-12-26T12:52:25.747Z,82.30
2017-12-26T12:54:54.069Z,81.57
2017-12-26T12:57:21.660Z,77.80
2017-12-26T12:59:49.712Z,84.23
2017-12-26T13:02:17.319Z,89.20
2017-12-26T13:04:44.942Z,84.53
2017-12-26T13:07:13.365Z,79.03
2017-12-26T13:09:40.962Z,72.43
2017-12-26T13:12:09.378Z,75.13
2017-12-26T13:14:38.029Z,74.00
2017-12-26T13:17:08.047Z,81.57
2017-12-26T13:19:37.356Z,88.10
2017-12-26T13:22:04.970Z,100.63
2017-12-26T13:24:32.758Z,85.97
2017-12-26T13:27:01.044Z,82.07
2017-12-26T13:29:29.916Z,79.00
2017-12-26T13:32:00.408Z,87.77
2017-12-26T13:34:30.048Z,77.30
2017-12-26T13:36:58.954Z,80.07
2017-12-26T13:39:28.084Z,83.13
2017-12-26T13:41:56.708Z,78.47
2017-12-26T13:44:25.524Z,79.70
2017-12-26T13:46:56.285Z,89.30
2017-12-26T13:49:26.604Z,88.60
2017-12-26T13:51:54.901Z,74.17
2017-12-26T13:54:24.741Z,83.17
2017-12-26T13:56:53.124Z,87.80
2017-12-26T13:59:22.089Z,80.97
2017-12-26T14:01:49.665Z,80.07
2017-12-26T14:04:18.838Z,75.57
2017-12-26T14:06:47.662Z,79.53
2017-12-26T14:09:17.279Z,77.53
2017-12-26T14:11:45.574Z,81.27
2017-12-26T14:14:14.925Z,75.10
2017-12-26T14:16:43.421Z,79.90
2017-12-26T14:19:14.763Z,88.53
2017-12-26T14:21:42.314Z,72.10
2017-12-26T14:24:10.828Z,75.33
2017-12-26T14:26:38.462Z,70.33
2017-12-26T14:29:06.593Z,72.70
2017-12-26T14:31:34.171Z,78.47
2017-12-26T14:34:01.697Z,98.97
2017-12-26T14:36:30.056Z,77.83
2017-12-26T14:38:57.607Z,68.60
2017-12-26T14:41:25.161Z,69.37
2017-12-26T14:43:52.764Z,74.63
2017-12-26T14:46:20.338Z,73.30
2017-12-26T14:48:47.879Z,74.37
2017-12-26T14:51:15.478Z,66.10
2017-12-26T14:53:42.999Z,69.47
2017-12-26T14:56:11.349Z,73.83
2017-12-26T14:58:38.920Z,72.67
2017-12-26T15:01:06.463Z,69.93
2017-12-26T15:03:34.026Z,68.83
2017-12-26T15:06:01.664Z,85.60
2017-12-26T15:08:29.276Z,76.13
2017-12-26T15:10:57.755Z,71.97
2017-12-26T15:13:25.416Z,74.63
2017-12-26T15:15:53.088Z,77.80
2017-12-26T15:18:21.547Z,75.23
2017-12-26T15:20:49.834Z,84.90
2017-12-26T15:23:18.363Z,70.10
2017-12-26T15:25:45.895Z,70.20
2017-12-26T15:28:13.428Z,69.57
2017-12-26T15:30:41.062Z,71.70
2017-12-26T15:33:08.670Z,68.90
2017-12-26T15:35:37.002Z,73.47
2017-12-26T15:38:05.410Z,74.13
2017-12-26T15:40:33.666Z,73.67
2017-12-26T15:43:03.309Z,70.30
2017-12-26T15:45:31.733Z,78.40
2017-12-26T15:47:59.294Z,80.17
2017-12-26T15:50:27.668Z,78.30
2017-12-26T15:52:55.508Z,76.67
2017-12-26T15:55:23.148Z,83.23
2017-12-26T15:57:51.521Z,79.40
2017-12-26T16:00:19.147Z,76.63
2017-12-26T16:02:46.745Z,95.90
2017-12-26T16:05:14.307Z,104.70
2017-12-26T16:07:42.670Z,82.77
2017-12-26T16:10:10.257Z,91.73
2017-12-26T16:12:37.814Z,85.60
2017-12-26T16:15:07.029Z,82.27
2017-12-26T16:17:35.341Z,79.53
2017-12-26T16:20:03.277Z,80.37
2017-12-26T16:22:33.447Z,78.17
2017-12-26T16:25:00.975Z,78.00
2017-12-26T16:27:28.534Z,79.10
2017-12-26T16:29:56.080Z,81.07
2017-12-26T16:32:24.572Z,75.60
2017-12-26T16:34:52.133Z,85.30
2017-12-26T16:37:19.719Z,86.17
2017-12-26T16:39:47.262Z,76.13
2017-12-26T16:42:15.264Z,79.53
2017-12-26T16:44:42.807Z,72.83
2017-12-26T16:47:11.265Z,78.20
2017-12-26T16:49:39.007Z,73.20
2017-12-26T16:52:07.455Z,71.10
2017-12-26T16:54:35.016Z,75.97
2017-12-26T16:57:02.575Z,81.50
2017-12-26T16:59:30.184Z,82.33
2017-12-26T17:01:57.745Z,80.27
2017-12-26T17:04:26.142Z,80.73
2017-12-26T17:06:53.904Z,86.63
2017-12-26T17:09:21.478Z,74.50
2017-12-26T17:11:49.023Z,73.50
2017-12-26T17:14:16.628Z,86.10
2017-12-26T17:16:44.193Z,88.23
2017-12-26T17:19:12.482Z,81.27
2017-12-26T17:21:40.071Z,79.23
2017-12-26T17:24:07.625Z,86.63
2017-12-26T17:26:35.199Z,83.93
2017-12-26T17:29:02.775Z,83.77
2017-12-26T17:31:31.322Z,86.47
2017-12-26T17:33:58.915Z,81.47
2017-12-26T17:36:26.460Z,82.57
2017-12-26T17:38:54.055Z,83.27
2017-12-26T17:41:21.652Z,80.10
2017-12-26T17:43:49.218Z,80.60
2017-12-26T17:46:16.767Z,84.23
2017-12-26T17:48:45.129Z,85.40
2017-12-26T17:51:13.481Z,84.20
2017-12-26T17:53:41.601Z,80.17
2017-12-26T17:56:09.309Z,78.40
2017-12-26T17:58:36.892Z,76.53
2017-12-26T18:01:04.425Z,77.20
2017-12-26T18:03:32.003Z,86.00
2017-12-26T18:06:00.247Z,82.63
2017-12-26T18:08:28.069Z,86.20
2017-12-26T18:10:55.994Z,85.93
2017-12-26T18:13:23.552Z,83.77
2017-12-26T18:15:51.178Z,88.40
2017-12-26T18:18:18.746Z,87.80
2017-12-26T18:20:46.346Z,90.23
2017-12-26T18:23:13.884Z,96.57
2017-12-26T18:25:41.618Z,85.53
2017-12-26T18:28:09.156Z,90.10
2017-12-26T18:30:36.701Z,96.13
2017-12-26T18:33:04.316Z,89.27
2017-12-26T18:35:31.847Z,87.87
2017-12-26T18:37:59.492Z,86.60
2017-12-26T18:40:27.125Z,94.17
2017-12-26T18:42:54.697Z,78.97
2017-12-26T18:45:22.313Z,80.60
2017-12-26T18:47:49.942Z,83.17
2017-12-26T18:50:20.017Z,80.50
2017-12-26T18:52:52.380Z,76.27
2017-12-26T18:55:20.184Z,78.70
2017-12-26T18:57:49.233Z,78.17
2017-12-26T19:00:16.777Z,79.57
2017-12-26T19:02:45.754Z,87.20
2017-12-26T19:05:13.276Z,84.20
2017-12-26T19:07:40.862Z,81.43
2017-12-26T19:10:08.961Z,89.23
2017-12-26T19:12:37.074Z,76.50
2017-12-26T19:15:06.995Z,79.60
2017-12-26T19:17:35.600Z,76.97
2017-12-26T19:20:04.014Z,74.53
2017-12-26T19:22:31.708Z,77.50
2017-12-26T19:24:59.247Z,84.20
2017-12-26T19:27:26.805Z,87.77
2017-12-26T19:29:54.678Z,79.50
2017-12-26T19:32:23.594Z,89.40
2017-12-26T19:34:51.131Z,87.47
2017-12-26T19:37:19.275Z,77.47
2017-12-26T19:39:48.274Z,83.00
2017-12-26T19:42:15.869Z,80.57
2017-12-26T19:44:43.463Z,80.83
2017-12-26T19:47:11.018Z,87.43
2017-12-26T19:49:38.599Z,80.80
2017-12-26T19:52:06.175Z,82.93
2017-12-26T19:54:33.764Z,89.17
2017-12-26T19:57:01.325Z,80.00
2017-12-26T19:59:28.915Z,84.40
2017-12-26T20:01:56.491Z,88.40
2017-12-26T20:04:24.278Z,82.80
2017-12-26T20:06:52.605Z,76.17
2017-12-26T20:09:20.219Z,83.40
2017-12-26T20:11:47.814Z,75.63
2017-12-26T20:14:15.358Z,78.53
2017-12-26T20:16:43.630Z,70.20
2017-12-26T20:19:11.234Z,72.83
2017-12-26T20:21:38.800Z,80.37
2017-12-26T20:24:06.417Z,76.27
2017-12-26T20:26:34.038Z,77.30
2017-12-26T20:29:01.632Z,73.17
2017-12-26T20:31:29.164Z,75.47
2017-12-26T20:33:57.516Z,81.63
2017-12-26T20:36:25.151Z,67.63
2017-12-26T20:38:52.687Z,71.13
2017-12-26T20:41:20.243Z,67.20
2017-12-26T20:43:47.786Z,74.80
2017-12-26T20:46:15.378Z,67.10
2017-12-26T20:48:43.008Z,84.57
2017-12-26T20:51:10.568Z,69.40
2017-12-26T20:53:38.868Z,78.83
2017-12-26T20:56:06.572Z,82.47
2017-12-26T20:58:34.120Z,79.80
2017-12-26T21:01:01.661Z,83.40
2017-12-26T21:03:29.277Z,71.50
2017-12-26T21:05:56.877Z,78.20
2017-12-26T21:08:24.447Z,77.83
2017-12-26T21:10:52.035Z,76.77
2017-12-26T21:13:19.580Z,67.40
2017-12-26T21:15:47.135Z,71.17
2017-12-26T21:18:14.712Z,67.70
2017-12-26T21:20:42.293Z,70.87
2017-12-26T21:23:09.827Z,75.87
2017-12-26T21:25:37.592Z,66.13
2017-12-26T21:28:05.115Z,70.47
2017-12-26T21:30:32.671Z,66.93
2017-12-26T21:33:01.038Z,72.00
2017-12-26T21:35:29.332Z,83.80
2017-12-26T21:37:56.874Z,64.67
2017-12-26T21:40:24.463Z,73.40
2017-12-26T21:42:52.142Z,65.93
2017-12-26T21:45:19.721Z,61.57
2017-12-26T21:47:47.335Z,75.73
2017-12-26T21:50:14.842Z,76.47
2017-12-26T21:52:42.400Z,67.70
2017-12-26T21:55:09.974Z,70.67
2017-12-26T21:57:37.804Z,60.27
2017-12-26T22:00:08.032Z,74.50
2017-12-26T22:02:35.590Z,71.40
2017-12-26T22:05:03.162Z,68.97
2017-12-26T22:07:30.812Z,64.73
2017-12-26T22:09:58.383Z,75.90
2017-12-26T22:12:25.925Z,72.43
2017-12-26T22:14:53.928Z,71.20
2017-12-26T22:17:21.454Z,79.37
2017-12-26T22:19:48.983Z,74.63
2017-12-26T22:22:16.757Z,78.57
2017-12-26T22:24:44.529Z,85.10
2017-12-26T22:27:12.104Z,69.27
2017-12-26T22:29:39.636Z,75.20
2017-12-26T22:32:07.226Z,79.33
2017-12-26T22:34:34.765Z,79.53
2017-12-26T22:37:02.337Z,71.07
2017-12-26T22:39:29.871Z,73.60
2017-12-26T22:41:58.202Z,73.23
2017-12-26T22:44:25.797Z,68.23
2017-12-26T22:46:53.317Z,82.87
2017-12-26T22:49:21.562Z,67.77
2017-12-26T22:51:49.150Z,72.63
2017-12-26T22:54:16.879Z,89.77
2017-12-26T22:56:44.446Z,73.23
2017-12-26T22:59:12.006Z,75.27
2017-12-26T23:01:39.576Z,82.77
2017-12-26T23:04:07.157Z,84.17
2017-12-26T23:06:34.751Z,82.90
2017-12-26T23:09:03.180Z,88.83
2017-12-26T23:11:30.753Z,77.97
2017-12-26T23:14:04.742Z,95.30
2017-12-26T23:16:37.909Z,77.90
2017-12-26T23:19:06.242Z,87.37
2017-12-26T23:21:34.001Z,87.63
2017-12-26T23:24:07.203Z,90.73
2017-12-26T23:26:40.466Z,90.50
2017-12-26T23:29:13.644Z,89.50
2017-12-26T23:31:46.919Z,91.33
2017-12-26T23:34:20.080Z,94.53
2017-12-26T23:36:53.248Z,95.53
2017-12-26T23:39:27.055Z,89.07
2017-12-26T23:42:00.146Z,92.77
2017-12-26T23:44:33.285Z,101.13
2017-12-26T23:47:07.119Z,88.53
2017-12-26T23:49:40.475Z,93.30
2017-12-26T23:52:13.801Z,97.60
2017-12-26T23:54:46.954Z,97.13
2017-12-26T23:57:20.280Z,101.63
2017-12-26T23:59:54.247Z,98.60
